createdAt,value
2023-02-06T00:00:33.206Z,14.50
2023-02-06T00:01:33.145Z,13.60
2023-02-06T00:02:33.206Z,16.30
2023-02-06T00:03:33.131Z,13.70
2023-02-06T00:04:33.098Z,14.90
2023-02-06T00:05:33.594Z,14.10
2023-02-06T00:06:33.183Z,16.40
2023-02-06T00:07:33.076Z,15.80
2023-02-06T00:08:33.084Z,14.00
2023-02-06T00:09:33.038Z,13.90
2023-02-06T00:10:33.026Z,13.90
2023-02-06T00:11:33.012Z,14.60
2023-02-06T00:12:32.990Z,13.30
2023-02-06T00:13:32.982Z,14.70
2023-02-06T00:14:33.017Z,13.40
2023-02-06T00:15:33.066Z,13.90
2023-02-06T00:16:32.939Z,14.30
2023-02-06T00:17:32.934Z,15.40
2023-02-06T00:18:32.922Z,14.50
2023-02-06T00:19:32.919Z,13.80
2023-02-06T00:20:32.925Z,13.70
2023-02-06T00:21:32.881Z,13.40
2023-02-06T00:22:32.872Z,13.50
2023-02-06T00:23:32.845Z,14.10
2023-02-06T00:24:32.874Z,14.10
2023-02-06T00:25:32.916Z,14.10
2023-02-06T00:26:32.823Z,13.00
2023-02-06T00:27:32.801Z,14.30
2023-02-06T00:28:32.803Z,14.10
2023-02-06T00:29:32.799Z,14.50
2023-02-06T00:30:32.804Z,13.90
2023-02-06T00:31:32.805Z,15.40
2023-02-06T00:32:32.739Z,17.50
2023-02-06T00:33:32.716Z,21.40
2023-02-06T00:34:32.736Z,19.50
2023-02-06T00:35:32.792Z,20.60
2023-02-06T00:36:32.725Z,20.50
2023-02-06T00:37:32.678Z,21.20
2023-02-06T00:38:32.683Z,18.10
2023-02-06T00:39:32.657Z,17.20
2023-02-06T00:40:32.688Z,17.00
2023-02-06T00:41:32.631Z,15.90
2023-02-06T00:42:32.603Z,16.40
2023-02-06T00:43:32.604Z,18.00
2023-02-06T00:44:32.628Z,17.70
2023-02-06T00:45:32.659Z,18.70
2023-02-06T00:46:32.627Z,18.30
2023-02-06T00:47:32.550Z,17.90
2023-02-06T00:48:32.538Z,17.20
2023-02-06T00:49:32.515Z,16.90
2023-02-06T00:50:32.565Z,18.10
2023-02-06T00:51:32.520Z,16.80
2023-02-06T00:52:32.488Z,17.60
2023-02-06T00:53:32.464Z,17.60
2023-02-06T00:54:32.453Z,16.30
2023-02-06T00:55:32.506Z,14.30
2023-02-06T00:56:32.426Z,15.80
2023-02-06T00:57:32.426Z,16.70
2023-02-06T00:58:32.414Z,17.50
2023-02-06T00:59:32.387Z,16.50
2023-02-06T01:00:32.395Z,16.10
2023-02-06T01:01:32.379Z,17.80
2023-02-06T01:02:32.368Z,15.50
2023-02-06T01:03:32.350Z,16.20
2023-02-06T01:04:32.334Z,16.80
2023-02-06T01:05:32.377Z,14.60
2023-02-06T01:06:32.297Z,15.40
2023-02-06T01:07:32.298Z,15.40
2023-02-06T01:08:32.273Z,15.20
2023-02-06T01:09:32.269Z,16.00
2023-02-06T01:10:32.241Z,15.80
2023-02-06T01:11:32.265Z,17.50
2023-02-06T01:12:32.218Z,17.80
2023-02-06T01:13:32.207Z,15.70
2023-02-06T01:14:32.196Z,16.10
2023-02-06T01:15:32.186Z,16.00
2023-02-06T01:16:32.193Z,16.90
2023-02-06T01:17:32.156Z,17.30
2023-02-06T01:18:32.144Z,17.10
2023-02-06T01:19:32.126Z,16.00
2023-02-06T01:20:32.110Z,16.50
2023-02-06T01:21:32.124Z,17.10
2023-02-06T01:22:32.075Z,16.00
2023-02-06T01:23:32.133Z,15.80
2023-02-06T01:24:32.057Z,15.90
2023-02-06T01:25:32.061Z,17.80
2023-02-06T01:26:32.032Z,16.20
2023-02-06T01:27:32.047Z,16.00
2023-02-06T01:28:32.017Z,16.20
2023-02-06T01:29:31.989Z,16.40
2023-02-06T01:30:32.012Z,14.40
2023-02-06T01:31:32.062Z,15.90
2023-02-06T01:32:31.980Z,16.10
2023-02-06T01:33:31.933Z,15.30
2023-02-06T01:34:31.939Z,15.40
2023-02-06T01:35:31.921Z,15.00
2023-02-06T01:36:31.950Z,15.60
2023-02-06T01:37:31.921Z,15.00
2023-02-06T01:38:31.904Z,15.20
2023-02-06T01:39:31.889Z,16.00
2023-02-06T01:40:31.855Z,15.90
2023-02-06T01:41:31.853Z,15.20
2023-02-06T01:42:31.818Z,15.80
2023-02-06T01:43:31.833Z,16.70
2023-02-06T01:44:31.799Z,15.40
2023-02-06T01:45:31.789Z,16.10
2023-02-06T01:46:31.833Z,15.40
2023-02-06T01:47:31.764Z,15.90
2023-02-06T01:48:31.752Z,14.90
2023-02-06T01:49:31.746Z,15.90
2023-02-06T01:50:31.737Z,15.90
2023-02-06T01:51:31.716Z,16.80
2023-02-06T01:52:31.709Z,15.30
2023-02-06T01:53:31.706Z,17.20
2023-02-06T01:54:31.655Z,15.50
2023-02-06T01:55:31.679Z,15.30
2023-02-06T01:56:31.652Z,16.70
2023-02-06T01:57:31.621Z,16.20
2023-02-06T01:58:31.644Z,15.80
2023-02-06T01:59:31.612Z,17.00
2023-02-06T02:00:31.669Z,15.50
2023-02-06T02:01:31.574Z,15.20
2023-02-06T02:02:31.554Z,15.30
2023-02-06T02:03:31.568Z,16.90
2023-02-06T02:04:31.527Z,14.20
2023-02-06T02:05:31.513Z,15.20
2023-02-06T02:06:31.527Z,14.60
2023-02-06T02:07:31.490Z,15.00
2023-02-06T02:08:31.484Z,14.50
2023-02-06T02:09:31.493Z,14.70
2023-02-06T02:10:31.472Z,15.10
2023-02-06T02:11:31.434Z,15.50
2023-02-06T02:12:31.440Z,15.80
2023-02-06T02:13:31.418Z,16.40
2023-02-06T02:14:31.470Z,16.10
2023-02-06T02:15:31.403Z,14.50
2023-02-06T02:16:31.426Z,16.70
2023-02-06T02:17:31.376Z,16.70
2023-02-06T02:18:31.360Z,14.40
2023-02-06T02:19:31.364Z,15.70
2023-02-06T02:20:31.327Z,15.30
2023-02-06T02:21:31.336Z,14.70
2023-02-06T02:22:31.342Z,14.60
2023-02-06T02:23:31.281Z,14.60
2023-02-06T02:24:31.926Z,17.40
2023-02-06T02:25:31.272Z,14.50
2023-02-06T02:26:31.296Z,16.60
2023-02-06T02:27:31.248Z,15.80
2023-02-06T02:28:31.222Z,17.80
2023-02-06T02:29:31.221Z,15.40
2023-02-06T02:30:31.290Z,13.90
2023-02-06T02:31:31.251Z,15.10
2023-02-06T02:32:31.173Z,14.60
2023-02-06T02:33:31.172Z,17.80
2023-02-06T02:34:31.151Z,14.00
2023-02-06T02:35:31.141Z,14.50
2023-02-06T02:36:31.151Z,14.80
2023-02-06T02:37:31.119Z,13.30
2023-02-06T02:38:31.103Z,14.10
2023-02-06T02:39:31.084Z,15.90
2023-02-06T02:40:31.071Z,13.90
2023-02-06T02:41:31.089Z,14.20
2023-02-06T02:42:31.042Z,13.80
2023-02-06T02:43:31.071Z,13.80
2023-02-06T02:44:31.027Z,13.60
2023-02-06T02:45:31.031Z,14.50
2023-02-06T02:46:30.999Z,13.60
2023-02-06T02:47:31.001Z,13.80
2023-02-06T02:48:31.000Z,13.90
2023-02-06T02:49:30.943Z,13.70
2023-02-06T02:50:30.970Z,13.40
2023-02-06T02:51:30.948Z,14.50
2023-02-06T02:52:30.916Z,13.80
2023-02-06T02:53:31.055Z,14.70
2023-02-06T02:54:30.891Z,14.20
2023-02-06T02:55:30.881Z,14.10
2023-02-06T02:56:30.882Z,14.70
2023-02-06T02:57:30.843Z,13.10
2023-02-06T02:58:30.850Z,14.00
2023-02-06T02:59:30.812Z,13.00
2023-02-06T03:00:30.807Z,14.10
2023-02-06T03:01:30.784Z,14.50
2023-02-06T03:02:30.799Z,14.20
2023-02-06T03:03:30.809Z,13.80
2023-02-06T03:04:30.783Z,14.80
2023-02-06T03:05:30.763Z,13.40
2023-02-06T03:06:30.748Z,14.00
2023-02-06T03:07:30.727Z,13.60
2023-02-06T03:08:30.732Z,13.30
2023-02-06T03:09:30.717Z,15.50
2023-02-06T03:10:30.680Z,14.20
2023-02-06T03:11:30.670Z,14.70
2023-02-06T03:12:30.650Z,14.40
2023-02-06T03:13:30.630Z,14.30
2023-02-06T03:14:30.657Z,13.40
2023-02-06T03:15:30.621Z,14.10
2023-02-06T03:16:30.678Z,16.50
2023-02-06T03:17:30.583Z,14.60
2023-02-06T03:18:30.576Z,17.90
2023-02-06T03:19:30.677Z,14.80
2023-02-06T03:20:30.553Z,14.40
2023-02-06T03:21:30.539Z,14.30
2023-02-06T03:22:30.532Z,14.50
2023-02-06T03:23:30.511Z,15.50
2023-02-06T03:24:30.518Z,15.40
2023-02-06T03:25:30.510Z,15.20
2023-02-06T03:26:30.472Z,15.30
2023-02-06T03:27:30.470Z,15.60
2023-02-06T03:28:30.441Z,15.80
2023-02-06T03:29:30.426Z,15.00
2023-02-06T03:30:30.461Z,15.10
2023-02-06T03:31:30.423Z,17.00
2023-02-06T03:32:30.382Z,15.80
2023-02-06T03:33:30.390Z,15.80
2023-02-06T03:34:30.400Z,15.80
2023-02-06T03:35:30.368Z,16.50
2023-02-06T03:36:30.331Z,15.50
2023-02-06T03:37:30.338Z,15.80
2023-02-06T03:38:30.338Z,15.80
2023-02-06T03:39:30.297Z,16.60
2023-02-06T03:40:30.325Z,16.40
2023-02-06T03:41:30.269Z,16.70
2023-02-06T03:42:30.271Z,16.20
2023-02-06T03:43:30.272Z,17.40
2023-02-06T03:44:30.252Z,17.00
2023-02-06T03:45:30.222Z,16.70
2023-02-06T03:46:30.224Z,16.40
2023-02-06T03:47:30.193Z,19.60
2023-02-06T03:48:30.213Z,17.90
2023-02-06T03:49:30.176Z,18.90
2023-02-06T03:50:30.155Z,16.60
2023-02-06T03:51:30.163Z,16.50
2023-02-06T03:52:30.178Z,16.50
2023-02-06T03:53:30.150Z,17.70
2023-02-06T03:54:30.118Z,17.70
2023-02-06T03:55:30.093Z,17.20
2023-02-06T03:56:30.104Z,16.50
2023-02-06T03:57:30.057Z,17.60
2023-02-06T03:58:30.084Z,18.50
2023-02-06T04:00:57.095Z,17.10
2023-02-06T04:01:02.062Z,16.00
2023-02-06T04:02:01.995Z,16.30
2023-02-06T04:03:01.942Z,15.90
2023-02-06T04:04:01.957Z,16.30
2023-02-06T04:05:01.911Z,16.20
2023-02-06T04:06:01.909Z,17.10
2023-02-06T04:07:01.898Z,16.50
2023-02-06T04:08:01.913Z,17.80
2023-02-06T04:09:01.863Z,16.40
2023-02-06T04:10:01.846Z,17.20
2023-02-06T04:11:01.872Z,17.80
2023-02-06T04:12:01.816Z,17.50
2023-02-06T04:13:01.850Z,17.00
2023-02-06T04:14:01.831Z,17.70
2023-02-06T04:15:01.818Z,17.50
2023-02-06T04:16:01.765Z,17.80
2023-02-06T04:17:01.758Z,17.60
2023-02-06T04:18:02.287Z,18.50
2023-02-06T04:19:01.741Z,17.90
2023-02-06T04:20:01.738Z,17.60
2023-02-06T04:21:01.721Z,19.60
2023-02-06T04:22:01.722Z,19.20
2023-02-06T04:23:01.695Z,17.40
2023-02-06T04:24:01.676Z,17.40
2023-02-06T04:25:01.648Z,16.60
2023-02-06T04:26:01.658Z,17.50
2023-02-06T04:27:01.629Z,17.50
2023-02-06T04:28:01.628Z,18.30
2023-02-06T04:29:01.603Z,17.10
2023-02-06T04:30:01.631Z,17.70
2023-02-06T04:31:01.696Z,17.50
2023-02-06T04:32:01.585Z,17.50
2023-02-06T04:33:01.552Z,15.80
2023-02-06T04:34:01.572Z,16.20
2023-02-06T04:35:01.534Z,16.30
2023-02-06T04:36:01.556Z,15.80
2023-02-06T04:37:01.572Z,16.10
2023-02-06T04:38:01.483Z,16.40
2023-02-06T04:39:01.465Z,16.80
2023-02-06T04:40:01.452Z,16.80
2023-02-06T04:41:01.442Z,15.30
2023-02-06T04:42:01.452Z,16.80
2023-02-06T04:43:01.421Z,15.90
2023-02-06T04:44:01.396Z,17.80
2023-02-06T04:45:01.407Z,16.10
2023-02-06T04:46:01.469Z,16.50
2023-02-06T04:47:01.352Z,16.00
2023-02-06T04:48:01.357Z,16.10
2023-02-06T04:49:01.342Z,17.40
2023-02-06T04:50:01.324Z,17.90
2023-02-06T04:51:01.333Z,23.30
2023-02-06T04:52:01.331Z,27.90
2023-02-06T04:53:01.307Z,22.10
2023-02-06T04:54:01.280Z,16.10
2023-02-06T04:55:01.254Z,18.00
2023-02-06T04:56:01.286Z,17.90
2023-02-06T04:57:01.249Z,17.40
2023-02-06T04:58:01.274Z,16.90
2023-02-06T04:59:01.216Z,16.90
2023-02-06T05:00:01.220Z,16.30
2023-02-06T05:01:01.214Z,17.50
2023-02-06T05:02:01.216Z,16.30
2023-02-06T05:03:01.176Z,16.10
2023-02-06T05:04:01.152Z,16.20
2023-02-06T05:05:01.127Z,17.00
2023-02-06T05:06:01.136Z,18.30
2023-02-06T05:07:01.106Z,16.70
2023-02-06T05:08:01.103Z,17.30
2023-02-06T05:09:01.116Z,18.70
2023-02-06T05:10:01.054Z,18.70
2023-02-06T05:11:01.063Z,17.10
2023-02-06T05:12:01.045Z,18.90
2023-02-06T05:13:01.017Z,17.50
2023-02-06T05:14:01.047Z,17.90
2023-02-06T05:15:00.996Z,18.00
2023-02-06T05:16:01.021Z,17.20
2023-02-06T05:17:00.971Z,16.30
2023-02-06T05:18:00.950Z,17.70
2023-02-06T05:19:00.972Z,17.00
2023-02-06T05:20:00.962Z,17.60
2023-02-06T05:21:00.934Z,18.20
2023-02-06T05:22:00.916Z,18.40
2023-02-06T05:23:00.964Z,18.60
2023-02-06T05:24:00.901Z,18.00
2023-02-06T05:25:00.886Z,17.90
2023-02-06T05:26:00.879Z,17.30
2023-02-06T05:27:00.844Z,18.40
2023-02-06T05:28:00.862Z,17.50
2023-02-06T05:29:00.817Z,16.60
2023-02-06T05:30:00.845Z,17.00
2023-02-06T05:31:00.869Z,16.50
2023-02-06T05:32:00.786Z,16.70
2023-02-06T05:33:00.786Z,17.20
2023-02-06T05:34:00.759Z,17.60
2023-02-06T05:35:00.778Z,18.70
2023-02-06T05:36:00.727Z,24.40
2023-02-06T05:37:00.721Z,18.80
2023-02-06T05:38:00.689Z,18.40
2023-02-06T05:39:00.695Z,18.80
2023-02-06T05:40:00.696Z,18.00
2023-02-06T05:41:00.643Z,17.70
2023-02-06T05:42:00.649Z,19.20
2023-02-06T05:43:00.653Z,19.20
2023-02-06T05:44:00.665Z,18.40
2023-02-06T05:45:00.625Z,19.00
2023-02-06T05:46:00.687Z,18.80
2023-02-06T05:47:00.586Z,20.00
2023-02-06T05:48:00.582Z,23.10
2023-02-06T05:49:00.565Z,20.50
2023-02-06T05:50:00.546Z,20.10
2023-02-06T05:51:00.560Z,21.10
2023-02-06T05:52:00.514Z,26.40
2023-02-06T05:53:00.527Z,25.40
2023-02-06T05:54:00.496Z,25.00
2023-02-06T05:55:00.492Z,24.80
2023-02-06T05:56:00.510Z,22.70
2023-02-06T05:57:00.463Z,25.70
2023-02-06T05:58:00.443Z,25.30
2023-02-06T05:59:00.460Z,25.90
2023-02-06T06:00:00.420Z,20.50
2023-02-06T06:01:00.405Z,21.40
2023-02-06T06:02:00.396Z,20.50
2023-02-06T06:03:00.368Z,18.90
2023-02-06T06:04:00.484Z,19.30
2023-02-06T06:05:00.403Z,22.30
2023-02-06T06:06:00.327Z,25.40
2023-02-06T06:07:00.340Z,22.40
2023-02-06T06:08:00.317Z,22.60
2023-02-06T06:09:00.327Z,21.40
2023-02-06T06:10:00.303Z,21.20
2023-02-06T06:11:02.018Z,19.70
2023-02-06T06:12:00.272Z,22.70
2023-02-06T06:13:00.240Z,23.00
2023-02-06T06:14:00.239Z,25.50
2023-02-06T06:15:00.236Z,23.50
2023-02-06T06:16:00.299Z,23.70
2023-02-06T06:17:00.202Z,22.80
2023-02-06T06:18:00.205Z,21.30
2023-02-06T06:19:00.170Z,21.00
2023-02-06T06:20:00.197Z,22.20
2023-02-06T06:21:00.154Z,21.10
2023-02-06T06:22:00.161Z,20.50
2023-02-06T06:23:00.133Z,22.50
2023-02-06T06:24:00.118Z,20.80
2023-02-06T06:25:00.122Z,26.40
2023-02-06T06:26:00.117Z,24.70
2023-02-06T06:27:00.115Z,21.50
2023-02-06T06:28:00.140Z,23.90
2023-02-06T06:29:00.041Z,21.70
2023-02-06T06:30:00.050Z,22.30
2023-02-06T06:31:00.080Z,20.60
2023-02-06T06:32:00.018Z,22.20
2023-02-06T06:32:59.986Z,20.40
2023-02-06T06:33:59.981Z,20.70
2023-02-06T06:34:59.987Z,19.10
2023-02-06T06:36:00.022Z,21.40
2023-02-06T06:36:59.947Z,21.50
2023-02-06T06:37:59.958Z,19.00
2023-02-06T06:38:59.909Z,19.00
2023-02-06T06:39:59.929Z,22.40
2023-02-06T06:40:59.896Z,21.90
2023-02-06T06:41:59.891Z,22.50
2023-02-06T06:42:59.866Z,25.50
2023-02-06T06:43:59.863Z,24.00
2023-02-06T06:44:59.859Z,25.20
2023-02-06T06:45:59.898Z,26.10
2023-02-06T06:46:59.834Z,25.40
2023-02-06T06:47:59.810Z,26.90
2023-02-06T06:48:59.787Z,26.90
2023-02-06T06:49:59.790Z,26.00
2023-02-06T06:50:59.749Z,26.50
2023-02-06T06:51:59.741Z,24.60
2023-02-06T06:52:59.737Z,24.60
2023-02-06T06:53:59.723Z,25.40
2023-02-06T06:54:59.741Z,27.20
2023-02-06T06:55:59.725Z,43.70
2023-02-06T06:56:59.705Z,26.70
2023-02-06T06:57:59.655Z,24.50
2023-02-06T06:58:59.670Z,26.10
2023-02-06T06:59:59.644Z,25.90
2023-02-06T07:00:59.649Z,28.50
2023-02-06T07:01:59.620Z,26.10
2023-02-06T07:02:59.650Z,28.50
2023-02-06T07:03:59.588Z,27.90
2023-02-06T07:04:59.572Z,28.60
2023-02-06T07:05:59.588Z,32.00
2023-02-06T07:06:59.566Z,33.20
2023-02-06T07:07:59.530Z,33.00
2023-02-06T07:08:59.525Z,31.30
2023-02-06T07:09:59.532Z,28.40
2023-02-06T07:10:59.489Z,26.30
2023-02-06T07:11:59.522Z,25.80
2023-02-06T07:12:59.471Z,27.40
2023-02-06T07:13:59.468Z,25.90
2023-02-06T07:14:59.463Z,26.00
2023-02-06T07:15:59.437Z,25.70
2023-02-06T07:16:59.427Z,27.80
2023-02-06T07:17:59.439Z,26.50
2023-02-06T07:18:59.394Z,32.20
2023-02-06T07:19:59.386Z,29.10
2023-02-06T07:20:59.379Z,32.40
2023-02-06T07:21:59.389Z,34.20
2023-02-06T07:22:59.376Z,29.50
2023-02-06T07:23:59.329Z,31.90
2023-02-06T07:24:59.349Z,31.90
2023-02-06T07:25:59.299Z,31.60
2023-02-06T07:26:59.295Z,31.60
2023-02-06T07:27:59.310Z,31.50
2023-02-06T07:28:59.275Z,33.20
2023-02-06T07:29:59.278Z,31.60
2023-02-06T07:30:59.248Z,28.60
2023-02-06T07:31:59.284Z,27.30
2023-02-06T07:32:59.234Z,28.20
2023-02-06T07:33:59.201Z,29.90
2023-02-06T07:34:59.195Z,28.70
2023-02-06T07:35:59.211Z,27.10
2023-02-06T07:36:59.200Z,25.70
2023-02-06T07:37:59.137Z,26.10
2023-02-06T07:38:59.144Z,27.00
2023-02-06T07:39:59.124Z,25.80
2023-02-06T07:40:59.104Z,24.70
2023-02-06T07:41:59.117Z,27.00
2023-02-06T07:42:59.088Z,27.80
2023-02-06T07:43:59.097Z,26.00
2023-02-06T07:44:59.071Z,22.90
2023-02-06T07:45:59.066Z,24.60
2023-02-06T07:46:59.037Z,24.20
2023-02-06T07:47:59.034Z,26.40
2023-02-06T07:48:59.040Z,31.80
2023-02-06T07:49:58.995Z,30.10
2023-02-06T07:50:58.989Z,28.40
2023-02-06T07:51:58.969Z,29.10
2023-02-06T07:52:58.976Z,25.40
2023-02-06T07:53:58.951Z,24.30
2023-02-06T07:54:58.952Z,25.70
2023-02-06T07:55:58.914Z,24.10
2023-02-06T07:56:58.936Z,25.70
2023-02-06T07:57:58.882Z,26.70
2023-02-06T07:58:58.876Z,27.70
2023-02-06T07:59:58.893Z,25.10
2023-02-06T08:00:58.860Z,27.20
2023-02-06T08:01:58.840Z,25.00
2023-02-06T08:02:58.836Z,24.30
2023-02-06T08:03:58.837Z,20.50
2023-02-06T08:04:58.791Z,18.40
2023-02-06T08:05:58.787Z,18.90
2023-02-06T08:06:58.778Z,18.70
2023-02-06T08:07:58.752Z,17.50
2023-02-06T08:08:58.772Z,18.40
2023-02-06T08:09:58.732Z,17.90
2023-02-06T08:10:58.718Z,18.70
2023-02-06T08:11:58.728Z,25.40
2023-02-06T08:12:58.697Z,19.10
2023-02-06T08:13:58.713Z,17.50
2023-02-06T08:14:58.662Z,16.40
2023-02-06T08:15:58.656Z,16.20
2023-02-06T08:16:58.656Z,15.30
2023-02-06T08:17:58.720Z,16.10
2023-02-06T08:18:58.712Z,28.80
2023-02-06T08:19:58.612Z,16.70
2023-02-06T08:20:58.611Z,17.70
2023-02-06T08:21:58.577Z,15.90
2023-02-06T08:22:58.555Z,16.90
2023-02-06T08:23:58.550Z,16.30
2023-02-06T08:24:58.554Z,17.40
2023-02-06T08:25:58.554Z,16.20
2023-02-06T08:26:58.542Z,18.70
2023-02-06T08:27:58.540Z,16.90
2023-02-06T08:28:58.483Z,18.70
2023-02-06T08:29:58.473Z,16.80
2023-02-06T08:30:58.545Z,18.10
2023-02-06T08:31:58.458Z,16.40
2023-02-06T08:32:58.452Z,16.10
2023-02-06T08:33:58.415Z,18.00
2023-02-06T08:34:58.407Z,16.90
2023-02-06T08:35:58.396Z,17.40
2023-02-06T08:36:58.377Z,17.80
2023-02-06T08:37:58.399Z,16.60
2023-02-06T08:38:58.348Z,15.30
2023-02-06T08:39:58.494Z,17.10
2023-02-06T08:40:58.324Z,17.10
2023-02-06T08:41:58.332Z,17.30
2023-02-06T08:42:58.306Z,16.00
2023-02-06T08:43:58.316Z,15.50
2023-02-06T08:44:58.276Z,15.00
2023-02-06T08:45:58.295Z,15.10
2023-02-06T08:47:09.184Z,15.70
2023-02-06T08:47:58.246Z,14.90
2023-02-06T08:48:58.281Z,15.00
2023-02-06T08:49:58.222Z,14.30
2023-02-06T08:50:58.190Z,13.80
2023-02-06T08:51:58.189Z,15.40
2023-02-06T08:52:58.174Z,14.90
2023-02-06T08:53:58.199Z,14.00
2023-02-06T08:54:58.160Z,14.90
2023-02-06T08:55:58.149Z,14.20
2023-02-06T08:56:58.130Z,14.20
2023-02-06T08:57:58.098Z,14.70
2023-02-06T08:58:58.135Z,13.70
2023-02-06T08:59:58.072Z,15.40
2023-02-06T09:00:58.071Z,14.00
2023-02-06T09:01:58.057Z,13.70
2023-02-06T09:02:58.022Z,14.80
2023-02-06T09:03:58.061Z,13.70
2023-02-06T09:04:58.021Z,13.00
2023-02-06T09:06:05.611Z,13.30
2023-02-06T09:06:57.985Z,13.40
2023-02-06T09:07:57.964Z,14.80
2023-02-06T09:08:58.054Z,14.80
2023-02-06T09:09:57.978Z,14.40
2023-02-06T09:10:57.940Z,15.00
2023-02-06T09:11:57.929Z,16.70
2023-02-06T09:12:57.921Z,16.80
2023-02-06T09:13:57.906Z,16.30
2023-02-06T09:14:57.922Z,14.30
2023-02-06T09:15:58.027Z,14.70
2023-02-06T09:16:57.849Z,15.70
2023-02-06T09:17:57.830Z,15.80
2023-02-06T09:18:57.830Z,15.80
2023-02-06T09:19:57.840Z,15.90
2023-02-06T09:20:57.802Z,16.00
2023-02-06T09:21:57.791Z,15.20
2023-02-06T09:22:57.778Z,15.30
2023-02-06T09:23:57.790Z,15.60
2023-02-06T09:24:57.771Z,16.60
2023-02-06T09:25:57.742Z,15.60
2023-02-06T09:27:00.080Z,15.00
2023-02-06T09:27:57.742Z,16.60
2023-02-06T09:28:57.775Z,15.00
2023-02-06T09:29:57.769Z,16.20
2023-02-06T09:30:57.758Z,17.10
2023-02-06T09:31:57.805Z,15.10
2023-02-06T09:32:57.648Z,16.90
2023-02-06T09:33:57.648Z,15.10
2023-02-06T09:34:57.604Z,18.80
2023-02-06T09:35:57.803Z,17.90
2023-02-06T09:36:57.587Z,15.90
2023-02-06T09:37:57.566Z,14.30
2023-02-06T09:38:57.547Z,16.30
2023-02-06T09:39:57.550Z,15.20
2023-02-06T09:40:57.549Z,13.00
2023-02-06T09:41:57.526Z,14.80
2023-02-06T09:42:57.509Z,14.90
2023-02-06T09:43:57.486Z,13.10
2023-02-06T09:44:57.525Z,12.80
2023-02-06T09:45:57.502Z,12.40
2023-02-06T09:46:57.466Z,12.30
2023-02-06T09:47:57.448Z,11.70
2023-02-06T09:48:57.453Z,12.80
2023-02-06T09:49:57.412Z,12.90
2023-02-06T09:50:57.455Z,11.40
2023-02-06T09:51:57.400Z,13.10
2023-02-06T09:52:57.965Z,12.20
2023-02-06T09:53:57.389Z,15.80
2023-02-06T09:54:57.332Z,13.60
2023-02-06T09:55:57.357Z,16.40
2023-02-06T09:56:57.373Z,16.50
2023-02-06T09:57:57.315Z,13.20
2023-02-06T09:58:57.300Z,13.40
2023-02-06T09:59:57.329Z,13.30
2023-02-06T10:00:57.283Z,11.80
2023-02-06T10:01:57.302Z,10.80
2023-02-06T10:02:57.268Z,10.80
2023-02-06T10:03:57.300Z,12.10
2023-02-06T10:04:57.230Z,10.90
2023-02-06T10:05:57.225Z,12.00
2023-02-06T10:06:57.204Z,11.40
2023-02-06T10:07:57.250Z,13.20
2023-02-06T10:08:57.176Z,10.50
2023-02-06T10:09:57.161Z,15.10
2023-02-06T10:10:57.166Z,13.30
2023-02-06T10:11:57.131Z,12.60
2023-02-06T10:12:57.141Z,17.30
2023-02-06T10:13:57.134Z,15.20
2023-02-06T10:14:57.092Z,15.70
2023-02-06T10:15:57.114Z,12.90
2023-02-06T10:16:57.100Z,16.20
2023-02-06T10:17:57.052Z,15.90
2023-02-06T10:18:57.080Z,14.40
2023-02-06T10:19:57.069Z,16.60
2023-02-06T10:20:57.029Z,13.60
2023-02-06T10:21:57.010Z,14.70
2023-02-06T10:22:56.984Z,16.70
2023-02-06T10:23:56.974Z,16.20
2023-02-06T10:24:57.001Z,14.20
2023-02-06T10:25:56.976Z,15.20
2023-02-06T10:26:56.938Z,13.90
2023-02-06T10:27:56.986Z,16.60
2023-02-06T10:28:56.937Z,16.50
2023-02-06T10:29:56.893Z,23.40
2023-02-06T10:30:56.985Z,17.80
2023-02-06T10:31:56.909Z,17.30
2023-02-06T10:32:56.883Z,13.10
2023-02-06T10:33:56.871Z,13.20
2023-02-06T10:34:56.831Z,13.70
2023-02-06T10:35:56.894Z,15.20
2023-02-06T10:36:56.811Z,16.70
2023-02-06T10:37:56.812Z,16.20
2023-02-06T10:38:56.780Z,15.90
2023-02-06T10:39:56.800Z,13.10
2023-02-06T10:40:56.758Z,14.60
2023-02-06T10:41:56.760Z,14.50
2023-02-06T10:42:56.761Z,12.40
2023-02-06T10:43:56.723Z,13.00
2023-02-06T10:45:03.571Z,13.10
2023-02-06T10:45:56.790Z,15.10
2023-02-06T10:46:56.744Z,15.40
2023-02-06T10:47:56.665Z,16.10
2023-02-06T10:48:56.671Z,13.20
2023-02-06T10:49:56.657Z,12.10
2023-02-06T10:50:56.647Z,12.90
2023-02-06T10:51:56.624Z,13.40
2023-02-06T10:52:56.589Z,13.20
2023-02-06T10:53:56.605Z,14.10
2023-02-06T10:54:56.582Z,12.30
2023-02-06T10:55:56.588Z,15.10
2023-02-06T10:56:56.549Z,13.90
2023-02-06T10:57:56.611Z,12.30
2023-02-06T10:58:56.523Z,12.50
2023-02-06T10:59:56.503Z,12.80
2023-02-06T11:00:56.541Z,11.40
2023-02-06T11:01:56.543Z,10.20
2023-02-06T11:03:06.612Z,12.70
2023-02-06T11:03:56.495Z,11.40
2023-02-06T11:04:56.457Z,11.00
2023-02-06T11:05:56.439Z,10.80
2023-02-06T11:06:56.406Z,11.50
2023-02-06T11:07:56.427Z,10.40
2023-02-06T11:08:56.418Z,12.40
2023-02-06T11:09:56.397Z,11.90
2023-02-06T11:10:56.374Z,10.40
2023-02-06T11:11:56.341Z,9.70
2023-02-06T11:12:56.345Z,10.90
2023-02-06T11:13:56.352Z,10.10
2023-02-06T11:14:56.350Z,11.90
2023-02-06T11:15:56.293Z,12.20
2023-02-06T11:16:56.300Z,14.40
2023-02-06T11:17:56.274Z,10.70
2023-02-06T11:18:56.264Z,13.10
2023-02-06T11:19:56.247Z,13.00
2023-02-06T11:20:56.261Z,11.90
2023-02-06T11:21:56.219Z,13.30
2023-02-06T11:22:56.208Z,11.80
2023-02-06T11:23:56.192Z,13.20
2023-02-06T11:24:56.210Z,11.80
2023-02-06T11:25:56.169Z,10.30
2023-02-06T11:26:56.149Z,12.10
2023-02-06T11:27:56.153Z,10.20
2023-02-06T11:28:56.145Z,11.20
2023-02-06T11:29:56.105Z,10.70
2023-02-06T11:30:56.167Z,11.60
2023-02-06T11:31:56.203Z,11.40
2023-02-06T11:33:04.368Z,11.00
2023-02-06T11:33:56.062Z,11.20
2023-02-06T11:34:56.047Z,10.80
2023-02-06T11:35:56.042Z,13.20
2023-02-06T11:36:56.056Z,12.40
2023-02-06T11:37:56.016Z,12.00
2023-02-06T11:38:56.011Z,13.40
2023-02-06T11:39:55.990Z,12.30
2023-02-06T11:40:55.971Z,13.40
2023-02-06T11:41:55.977Z,13.10
2023-02-06T11:42:55.961Z,11.40
2023-02-06T11:43:55.929Z,12.80
2023-02-06T11:44:55.939Z,12.50
2023-02-06T11:45:55.945Z,11.50
2023-02-06T11:46:55.889Z,12.30
2023-02-06T11:47:55.902Z,11.60
2023-02-06T11:48:55.849Z,11.60
2023-02-06T11:49:55.845Z,11.50
2023-02-06T11:50:55.842Z,10.90
2023-02-06T11:51:55.826Z,10.70
2023-02-06T11:52:55.844Z,11.10
2023-02-06T11:53:55.786Z,9.90
2023-02-06T11:54:55.805Z,13.00
2023-02-06T11:55:55.753Z,10.00
2023-02-06T11:56:55.778Z,10.30
2023-02-06T11:57:55.767Z,10.10
2023-02-06T11:58:55.738Z,9.60
2023-02-06T11:59:55.721Z,10.40
2023-02-06T12:00:55.728Z,9.40
2023-02-06T12:01:55.755Z,9.70
2023-02-06T12:02:55.664Z,10.50
2023-02-06T12:03:55.692Z,8.80
2023-02-06T12:04:55.659Z,10.10
2023-02-06T12:05:57.801Z,10.10
2023-02-06T12:06:55.616Z,9.00
2023-02-06T12:07:55.638Z,7.90
2023-02-06T12:08:55.619Z,7.90
2023-02-06T12:09:55.575Z,8.10
2023-02-06T12:10:55.560Z,9.80
2023-02-06T12:11:55.557Z,8.30
2023-02-06T12:12:55.552Z,8.40
2023-02-06T12:13:55.561Z,8.50
2023-02-06T12:14:55.527Z,8.50
2023-02-06T12:15:55.503Z,7.90
2023-02-06T12:16:55.577Z,8.40
2023-02-06T12:17:55.480Z,7.80
2023-02-06T12:18:55.482Z,8.10
2023-02-06T12:19:55.467Z,7.40
2023-02-06T12:20:55.430Z,7.70
2023-02-06T12:21:55.468Z,8.80
2023-02-06T12:22:55.428Z,8.20
2023-02-06T12:23:55.421Z,9.00
2023-02-06T12:24:55.397Z,10.10
2023-02-06T12:25:55.357Z,10.30
2023-02-06T12:26:55.447Z,8.20
2023-02-06T12:27:55.369Z,9.60
2023-02-06T12:28:55.323Z,9.00
2023-02-06T12:29:55.334Z,8.60
2023-02-06T12:30:55.408Z,9.00
2023-02-06T12:31:55.462Z,10.00
2023-02-06T12:32:55.282Z,10.00
2023-02-06T12:33:55.409Z,9.70
2023-02-06T12:34:55.275Z,9.10
2023-02-06T12:35:55.228Z,9.60
2023-02-06T12:36:55.203Z,10.50
2023-02-06T12:37:55.198Z,10.30
2023-02-06T12:38:55.193Z,21.90
2023-02-06T12:39:55.215Z,12.80
2023-02-06T12:40:55.157Z,14.50
2023-02-06T12:41:55.253Z,11.60
2023-02-06T12:42:55.175Z,11.50
2023-02-06T12:43:55.115Z,18.70
2023-02-06T12:44:55.118Z,10.90
2023-02-06T12:45:55.177Z,11.10
2023-02-06T12:46:55.088Z,102.80
2023-02-06T12:47:55.096Z,85.80
2023-02-06T12:48:55.053Z,55.40
2023-02-06T12:49:55.046Z,70.10
2023-02-06T12:50:55.070Z,78.10
2023-02-06T12:51:55.012Z,61.30
2023-02-06T12:52:54.991Z,23.50
2023-02-06T12:53:54.989Z,17.20